createdAt,value
2018-05-29T00:01:34.271Z,18.87
2018-05-29T00:04:04.341Z,22.00
2018-05-29T00:06:34.073Z,16.63
2018-05-29T00:09:36.935Z,18.93
2018-05-29T00:12:06.875Z,26.90
2018-05-29T00:14:50.153Z,24.90
2018-05-29T00:17:20.975Z,19.67
2018-05-29T00:19:51.549Z,18.30
2018-05-29T00:22:20.905Z,20.83
2018-05-29T00:24:51.411Z,22.07
2018-05-29T00:27:22.867Z,21.60
2018-05-29T00:29:57.294Z,21.97
2018-05-29T00:32:35.065Z,22.57
2018-05-29T00:35:07.050Z,20.97
2018-05-29T00:37:38.455Z,20.47
2018-05-29T00:40:08.023Z,20.80
2018-05-29T00:42:42.806Z,20.73
2018-05-29T00:45:29.134Z,21.27
2018-05-29T00:48:16.092Z,23.17
2018-05-29T00:50:57.509Z,22.33
2018-05-29T00:53:59.365Z,23.13
2018-05-29T00:56:43.878Z,22.50
2018-05-29T00:59:16.330Z,23.37
2018-05-29T01:01:45.580Z,23.33
2018-05-29T01:04:29.291Z,29.00
2018-05-29T01:07:13.942Z,27.03
2018-05-29T01:09:43.941Z,24.50
2018-05-29T01:12:19.854Z,26.33
2018-05-29T01:15:07.698Z,22.30
2018-05-29T01:17:39.856Z,24.63
2018-05-29T01:20:10.087Z,26.53
2018-05-29T01:22:50.805Z,28.57
2018-05-29T01:25:34.518Z,30.83
2018-05-29T01:28:04.594Z,24.93
2018-05-29T01:30:45.664Z,25.53
2018-05-29T01:33:20.425Z,26.43
2018-05-29T01:35:57.741Z,27.63
2018-05-29T01:38:30.519Z,24.70
2018-05-29T01:41:01.048Z,25.87
2018-05-29T01:43:31.091Z,26.93
2018-05-29T01:46:00.232Z,26.17
2018-05-29T01:48:29.745Z,29.03
2018-05-29T01:51:06.851Z,28.50
2018-05-29T01:53:37.004Z,30.50
2018-05-29T01:56:06.209Z,26.67
2018-05-29T01:58:36.519Z,27.80
2018-05-29T02:01:05.701Z,27.30
2018-05-29T02:03:35.735Z,27.50
2018-05-29T02:06:05.533Z,25.10
2018-05-29T02:08:35.754Z,28.77
2018-05-29T02:11:05.544Z,26.10
2018-05-29T02:13:34.725Z,27.30
2018-05-29T02:16:05.809Z,29.07
2018-05-29T02:18:35.162Z,27.67
2018-05-29T02:21:04.857Z,28.67
2018-05-29T02:23:34.358Z,29.93
2018-05-29T02:26:05.700Z,27.80
2018-05-29T02:28:36.161Z,27.07
2018-05-29T02:31:05.885Z,27.87
2018-05-29T02:33:35.337Z,31.27
2018-05-29T02:36:06.705Z,30.43
2018-05-29T02:38:36.440Z,29.60
2018-05-29T02:41:06.360Z,28.60
2018-05-29T02:43:37.071Z,29.90
2018-05-29T02:46:07.148Z,29.37
2018-05-29T02:48:36.437Z,26.73
2018-05-29T02:51:05.950Z,27.47
2018-05-29T02:53:35.372Z,27.97
2018-05-29T02:56:06.126Z,29.27
2018-05-29T02:58:36.363Z,28.43
2018-05-29T03:01:06.535Z,27.83
2018-05-29T03:03:36.832Z,29.43
2018-05-29T03:06:07.030Z,29.30
2018-05-29T03:08:36.713Z,29.73
2018-05-29T03:11:24.886Z,30.43
2018-05-29T03:13:55.407Z,32.23
2018-05-29T03:16:26.859Z,31.53
2018-05-29T03:18:59.540Z,42.03
2018-05-29T03:21:42.644Z,29.23
2018-05-29T03:24:18.582Z,29.47
2018-05-29T03:26:50.522Z,26.67
2018-05-29T03:29:23.224Z,29.67
2018-05-29T03:31:55.413Z,25.20
2018-05-29T03:34:34.633Z,26.03
2018-05-29T03:37:14.718Z,27.47
2018-05-29T03:39:44.661Z,28.27
2018-05-29T03:42:14.112Z,26.80
2018-05-29T03:44:43.721Z,27.43
2018-05-29T03:47:15.010Z,29.53
2018-05-29T03:49:45.701Z,26.60
2018-05-29T03:52:16.135Z,27.27
2018-05-29T03:54:46.129Z,25.10
2018-05-29T03:57:15.750Z,26.07
2018-05-29T03:59:46.865Z,26.10
2018-05-29T04:02:16.146Z,26.33
2018-05-29T04:04:45.687Z,28.63
2018-05-29T04:07:20.443Z,24.07
2018-05-29T04:09:50.919Z,24.63
2018-05-29T04:12:24.782Z,25.43
2018-05-29T04:14:56.463Z,27.70
2018-05-29T04:17:26.376Z,30.20
2018-05-29T04:19:55.783Z,30.77
2018-05-29T04:22:55.537Z,33.43
2018-05-29T04:25:37.955Z,34.10
2018-05-29T04:28:11.840Z,33.20
2018-05-29T04:30:41.047Z,37.43
2018-05-29T04:33:10.791Z,35.03
2018-05-29T04:35:41.301Z,36.27
2018-05-29T04:38:11.289Z,33.90
2018-05-29T04:40:41.785Z,36.33
2018-05-29T04:43:11.774Z,38.70
2018-05-29T04:45:42.347Z,36.20
2018-05-29T04:48:11.576Z,36.27
2018-05-29T04:50:40.809Z,42.23
2018-05-29T04:53:10.018Z,38.80
2018-05-29T04:55:39.253Z,40.23
2018-05-29T04:58:08.510Z,37.67
2018-05-29T05:00:37.802Z,36.70
2018-05-29T05:03:09.333Z,36.50
2018-05-29T05:05:39.620Z,36.10
2018-05-29T05:08:09.040Z,37.93
2018-05-29T05:10:39.386Z,35.80
2018-05-29T05:13:08.990Z,39.10
2018-05-29T05:15:45.010Z,42.07
2018-05-29T05:18:22.093Z,40.13
2018-05-29T05:20:51.622Z,41.03
2018-05-29T05:23:20.967Z,38.20
2018-05-29T05:25:50.333Z,39.27
2018-05-29T05:28:20.151Z,43.20
2018-05-29T05:30:49.495Z,37.87
2018-05-29T05:33:18.769Z,36.43
2018-05-29T05:35:48.318Z,32.43
2018-05-29T05:38:17.724Z,31.43
2018-05-29T05:40:47.923Z,32.03
2018-05-29T05:43:18.375Z,28.80
2018-05-29T05:45:48.738Z,26.00
2018-05-29T05:48:18.279Z,26.70
2018-05-29T05:50:47.875Z,22.73
2018-05-29T05:53:18.205Z,22.80
2018-05-29T05:55:47.957Z,23.80
2018-05-29T05:58:17.255Z,22.13
2018-05-29T06:00:47.555Z,21.30
2018-05-29T06:03:17.566Z,21.70
2018-05-29T06:05:49.208Z,21.73
2018-05-29T06:08:24.262Z,19.50
2018-05-29T06:10:59.386Z,19.47
2018-05-29T06:13:29.671Z,21.20
2018-05-29T06:15:59.107Z,18.37
2018-05-29T06:18:29.377Z,15.47
2018-05-29T06:20:58.628Z,14.73
2018-05-29T06:23:28.533Z,12.87
2018-05-29T06:25:58.318Z,12.23
2018-05-29T06:28:27.856Z,12.90
2018-05-29T06:31:00.858Z,11.50
2018-05-29T06:34:33.540Z,14.40
2018-05-29T06:37:02.903Z,9.97
2018-05-29T06:39:32.263Z,11.10
2018-05-29T06:42:01.746Z,10.10
2018-05-29T06:44:31.902Z,9.47
2018-05-29T06:47:01.248Z,8.70
2018-05-29T06:49:37.788Z,10.67
2018-05-29T06:52:09.135Z,10.37
2018-05-29T06:54:49.144Z,11.37
2018-05-29T06:57:42.183Z,10.20
2018-05-29T07:00:27.867Z,15.20
2018-05-29T07:02:58.400Z,11.70
2018-05-29T07:05:33.440Z,12.07
2018-05-29T07:08:04.672Z,11.67
2018-05-29T07:10:34.061Z,11.87
2018-05-29T07:13:05.127Z,10.10
2018-05-29T07:15:34.589Z,10.43
2018-05-29T07:18:04.605Z,8.97
2018-05-29T07:20:36.043Z,8.83
2018-05-29T07:23:05.474Z,9.30
2018-05-29T07:25:34.858Z,9.13
2018-05-29T07:28:05.038Z,8.30
2018-05-29T07:30:41.713Z,9.30
2018-05-29T07:33:15.526Z,8.57
2018-05-29T07:35:46.735Z,8.17
2018-05-29T07:38:20.403Z,8.90
2018-05-29T07:40:51.381Z,8.90
2018-05-29T07:43:20.879Z,10.13
2018-05-29T07:45:54.333Z,9.60
2018-05-29T07:48:24.856Z,10.33
2018-05-29T07:50:55.363Z,9.50
2018-05-29T07:53:27.144Z,8.10
2018-05-29T07:55:57.245Z,27.67
2018-05-29T07:58:27.944Z,9.10
2018-05-29T08:01:00.142Z,8.40
2018-05-29T08:03:31.092Z,9.00
2018-05-29T08:06:03.390Z,8.20
2018-05-29T08:08:33.250Z,8.53
2018-05-29T08:11:05.697Z,10.20
2018-05-29T08:13:40.150Z,8.43
2018-05-29T08:16:09.456Z,8.50
2018-05-29T08:18:53.297Z,9.10
2018-05-29T08:21:32.006Z,9.97
2018-05-29T08:24:01.505Z,9.60
2018-05-29T08:26:32.755Z,9.47
2018-05-29T08:29:04.561Z,8.63
2018-05-29T08:31:35.255Z,8.33
2018-05-29T08:34:04.638Z,8.90
2018-05-29T08:36:34.148Z,9.20
2018-05-29T08:39:06.756Z,8.98
2018-05-29T08:41:36.997Z,8.63
2018-05-29T08:44:07.882Z,17.53
2018-05-29T08:46:38.311Z,8.90
2018-05-29T08:49:08.852Z,9.43
2018-05-29T08:51:39.238Z,9.53
2018-05-29T08:54:08.756Z,9.25
2018-05-29T08:56:38.350Z,10.30
2018-05-29T08:59:11.665Z,8.65
2018-05-29T09:01:42.326Z,9.27
2018-05-29T09:04:12.728Z,8.15
2018-05-29T09:06:42.400Z,14.85
2018-05-29T09:09:13.448Z,9.17
2018-05-29T09:11:44.484Z,10.23
2018-05-29T09:14:15.257Z,10.70
2018-05-29T09:16:44.638Z,9.13
2018-05-29T09:19:14.436Z,9.07
2018-05-29T09:21:45.244Z,10.03
2018-05-29T09:24:16.024Z,10.93
2018-05-29T09:26:55.944Z,9.90
2018-05-29T09:30:34.389Z,10.40
2018-05-29T09:33:05.211Z,10.17
2018-05-29T09:35:35.972Z,10.30
2018-05-29T09:38:05.769Z,9.70
2018-05-29T09:40:36.724Z,9.80
2018-05-29T09:43:23.171Z,10.50
2018-05-29T09:46:08.830Z,10.00
2018-05-29T09:48:50.431Z,12.27
2018-05-29T09:51:20.622Z,11.10
2018-05-29T09:53:54.486Z,11.60
2018-05-29T09:56:24.736Z,12.20
2018-05-29T09:58:55.715Z,12.33
2018-05-29T10:04:51.629Z,13.30
2018-05-29T10:07:29.577Z,12.87
2018-05-29T10:10:10.731Z,14.13
2018-05-29T10:12:45.183Z,13.43
2018-05-29T10:15:18.548Z,12.70
2018-05-29T10:17:50.301Z,13.90
2018-05-29T10:20:24.681Z,13.50
2018-05-29T10:22:59.344Z,13.20
2018-05-29T10:28:16.983Z,14.27
2018-05-29T10:30:47.813Z,14.23
2018-05-29T10:33:28.498Z,13.80
2018-05-29T10:36:00.929Z,13.50
2018-05-29T10:38:33.177Z,12.80
2018-05-29T10:41:05.786Z,12.40
2018-05-29T10:43:42.798Z,14.13
2018-05-29T10:46:15.461Z,11.27
2018-05-29T10:48:47.524Z,13.00
2018-05-29T10:51:29.697Z,12.00
2018-05-29T10:54:01.653Z,15.33
2018-05-29T10:56:35.109Z,12.27
2018-05-29T10:59:06.615Z,12.27
2018-05-29T11:01:41.382Z,12.50
2018-05-29T11:04:14.127Z,12.30
2018-05-29T11:06:46.504Z,17.07
2018-05-29T11:09:21.348Z,13.60
2018-05-29T11:11:56.004Z,13.70
2018-05-29T11:18:02.472Z,11.37
2018-05-29T11:20:42.109Z,12.00
2018-05-29T11:23:16.702Z,12.07
2018-05-29T11:25:57.203Z,13.10
2018-05-29T11:28:38.636Z,11.30
2018-05-29T11:31:16.058Z,11.13
2018-05-29T11:33:46.786Z,10.70
2018-05-29T11:36:23.840Z,11.40
2018-05-29T11:38:54.494Z,10.13
2018-05-29T11:41:24.897Z,9.80
2018-05-29T11:43:59.210Z,9.38
2018-05-29T11:46:28.981Z,10.70
2018-05-29T11:48:59.070Z,10.77
2018-05-29T11:51:30.545Z,10.20
2018-05-29T11:54:02.135Z,14.65
2018-05-29T11:56:32.547Z,9.13
2018-05-29T11:59:04.672Z,8.90
2018-05-29T12:01:37.833Z,8.30
2018-05-29T12:04:10.326Z,8.63
2018-05-29T12:06:39.887Z,8.20
2018-05-29T12:09:09.526Z,6.53
2018-05-29T12:11:39.941Z,6.32
2018-05-29T12:14:11.058Z,9.50
2018-05-29T12:16:41.361Z,13.48
2018-05-29T12:19:15.439Z,8.47
2018-05-29T12:21:46.056Z,6.07
2018-05-29T12:24:17.996Z,6.30
2018-05-29T12:26:49.594Z,7.30
2018-05-29T12:29:36.223Z,7.45
2018-05-29T12:32:19.056Z,8.00
2018-05-29T12:35:04.203Z,8.17
2018-05-29T12:37:59.717Z,6.30
2018-05-29T12:47:38.323Z,7.83
2018-05-29T12:50:11.663Z,6.60
2018-05-29T12:52:42.180Z,8.77
2018-05-29T12:55:18.743Z,6.33
2018-05-29T12:57:56.438Z,6.70
2018-05-29T13:00:30.941Z,7.23
2018-05-29T13:03:03.318Z,6.30
2018-05-29T13:05:38.690Z,7.00
2018-05-29T13:08:13.227Z,7.10
2018-05-29T13:10:49.750Z,7.73
2018-05-29T13:13:27.813Z,10.40
2018-05-29T13:15:58.984Z,8.10
2018-05-29T13:18:35.187Z,7.83
2018-05-29T13:24:29.764Z,9.20
2018-05-29T13:27:11.933Z,11.43
2018-05-29T13:29:51.053Z,11.40
2018-05-29T13:32:28.938Z,12.33
2018-05-29T13:35:13.612Z,10.93
2018-05-29T13:37:50.597Z,10.83
2018-05-29T13:40:26.433Z,12.00
2018-05-29T13:42:59.930Z,13.17
2018-05-29T13:45:32.477Z,15.67
2018-05-29T13:48:06.581Z,12.93
2018-05-29T13:50:43.160Z,34.30
2018-05-29T13:53:33.298Z,66.97
2018-05-29T13:56:52.220Z,16.67
2018-05-29T13:59:26.768Z,8.47
2018-05-29T14:02:04.972Z,13.23
2018-05-29T14:04:38.162Z,7.97
2018-05-29T14:07:30.238Z,7.20
2018-05-29T14:13:03.377Z,5.50
2018-05-29T14:15:46.166Z,5.57
2018-05-29T14:18:30.282Z,4.90
2018-05-29T14:31:29.723Z,9.10
2018-05-29T14:34:05.567Z,9.93
2018-05-29T14:39:25.479Z,10.27
2018-05-29T14:42:08.231Z,17.70
2018-05-29T14:48:08.910Z,20.50
2018-05-29T14:51:49.776Z,17.70
2018-05-29T14:57:44.727Z,13.97
2018-05-29T15:00:16.943Z,14.17
2018-05-29T15:03:07.831Z,10.40
2018-05-29T15:09:07.987Z,11.50
2018-05-29T15:11:50.285Z,14.40
2018-05-29T15:14:28.640Z,14.23
2018-05-29T15:17:03.291Z,13.77
2018-05-29T15:19:39.384Z,18.87
2018-05-29T15:22:29.938Z,14.87
2018-05-29T15:25:31.110Z,14.07
2018-05-29T15:31:32.099Z,13.20
2018-05-29T15:34:11.186Z,15.40
2018-05-29T15:36:42.475Z,12.33
2018-05-29T15:39:48.221Z,14.93
2018-05-29T15:43:33.907Z,15.13
2018-05-29T15:52:46.438Z,16.83
2018-05-29T15:55:21.858Z,17.90
2018-05-29T15:57:58.712Z,19.57
2018-05-29T16:00:46.429Z,15.77
2018-05-29T16:03:27.410Z,19.43
2018-05-29T16:20:10.357Z,16.93
2018-05-29T16:22:59.863Z,18.17
2018-05-29T16:31:23.684Z,21.10
2018-05-29T16:36:52.757Z,17.13
2018-05-29T16:39:24.062Z,16.30
2018-05-29T16:41:58.480Z,17.93
2018-05-29T16:44:53.097Z,17.70
2018-05-29T16:47:26.337Z,20.80
2018-05-29T16:50:00.623Z,18.70
2018-05-29T16:52:39.301Z,21.17
2018-05-29T16:55:12.452Z,22.50
2018-05-29T16:57:43.379Z,22.27
2018-05-29T17:00:25.277Z,19.67
2018-05-29T17:03:22.542Z,23.03
2018-05-29T17:06:06.373Z,24.20
2018-05-29T17:11:27.037Z,27.23
2018-05-29T17:14:21.386Z,27.47
2018-05-29T17:19:42.975Z,27.70
2018-05-29T17:22:38.978Z,26.27
2018-05-29T17:28:20.538Z,27.10
2018-05-29T17:31:08.806Z,28.40
2018-05-29T17:52:58.932Z,28.23
2018-05-29T17:55:43.106Z,32.57
2018-05-29T18:04:29.386Z,42.53
2018-05-29T18:11:09.325Z,32.73
2018-05-29T18:14:02.296Z,33.23
2018-05-29T18:23:02.378Z,22.17
2018-05-29T18:25:36.371Z,27.25
2018-05-29T18:28:06.587Z,28.70
2018-05-29T18:30:37.450Z,46.77
2018-05-29T18:33:08.693Z,27.23
2018-05-29T18:35:38.975Z,35.03
2018-05-29T18:38:24.088Z,25.30
2018-05-29T18:41:29.966Z,18.97
2018-05-29T18:44:28.683Z,29.27
2018-05-29T18:47:13.459Z,47.20
2018-05-29T18:49:44.321Z,51.03
2018-05-29T18:52:14.646Z,71.03
2018-05-29T18:55:17.641Z,29.60
2018-05-29T19:01:19.018Z,23.37
2018-05-29T19:03:50.469Z,30.60
2018-05-29T19:09:23.195Z,32.00
2018-05-29T19:11:58.814Z,68.60
2018-05-29T19:14:31.821Z,56.20
2018-05-29T19:17:07.184Z,37.33
2018-05-29T19:19:41.342Z,21.77
2018-05-29T19:22:15.082Z,22.60
2018-05-29T19:29:55.406Z,30.47
2018-05-29T19:32:53.330Z,19.60
2018-05-29T19:35:25.742Z,24.30
2018-05-29T19:37:55.543Z,11.43
2018-05-29T19:43:42.648Z,51.60
2018-05-29T19:46:13.844Z,13.63
2018-05-29T19:48:43.816Z,20.10
2018-05-29T19:51:17.067Z,14.83
2018-05-29T19:53:49.047Z,15.53
2018-05-29T19:56:22.784Z,15.50
2018-05-29T19:58:56.478Z,15.80
2018-05-29T20:01:28.292Z,14.20
2018-05-29T20:03:59.040Z,18.50
2018-05-29T20:06:29.956Z,66.20
2018-05-29T20:09:04.475Z,34.70
2018-05-29T20:11:36.359Z,14.40
2018-05-29T20:14:17.806Z,17.63
2018-05-29T20:17:21.149Z,19.23
2018-05-29T20:19:55.479Z,16.13
2018-05-29T20:22:41.619Z,53.27
2018-05-29T20:25:15.782Z,57.60
2018-05-29T20:28:01.282Z,45.83
2018-05-29T20:33:31.595Z,45.27
2018-05-29T20:36:01.816Z,34.87
2018-05-29T20:38:34.030Z,18.20
2018-05-29T20:41:07.360Z,16.17
2018-05-29T20:43:38.333Z,18.60
2018-05-29T20:46:15.063Z,65.57
2018-05-29T20:48:46.694Z,28.50
2018-05-29T20:51:16.566Z,26.23
2018-05-29T20:53:46.667Z,20.77
2018-05-29T21:02:07.374Z,33.93
2018-05-29T21:04:39.963Z,24.70
2018-05-29T21:07:55.182Z,15.20
2018-05-29T21:13:55.637Z,22.30
2018-05-29T21:19:31.769Z,15.30
2018-05-29T21:22:01.502Z,15.13
2018-05-29T21:24:50.323Z,30.07
2018-05-29T21:27:45.411Z,29.93
2018-05-29T21:30:18.708Z,18.70
2018-05-29T21:32:54.429Z,37.00
2018-05-29T21:35:30.966Z,56.23
2018-05-29T21:38:02.391Z,14.53
2018-05-29T21:40:33.773Z,14.40
2018-05-29T21:43:05.503Z,17.10
2018-05-29T21:45:36.815Z,20.30
2018-05-29T21:48:09.246Z,13.40
2018-05-29T21:50:40.496Z,21.40
2018-05-29T21:53:20.165Z,18.80
2018-05-29T21:56:14.939Z,13.20
2018-05-29T21:58:54.370Z,17.30
2018-05-29T22:01:24.439Z,33.70
2018-05-29T22:03:58.624Z,12.13
2018-05-29T22:06:29.584Z,13.13
2018-05-29T22:09:01.669Z,18.75
2018-05-29T22:11:35.197Z,18.90
2018-05-29T22:14:05.774Z,28.13
2018-05-29T22:16:35.488Z,10.60
2018-05-29T22:19:07.865Z,12.30
2018-05-29T22:21:37.631Z,16.30
2018-05-29T22:24:11.249Z,14.43
2018-05-29T22:26:43.382Z,14.53
2018-05-29T22:29:14.515Z,32.53
2018-05-29T22:31:46.822Z,10.83
2018-05-29T22:34:29.474Z,10.17
2018-05-29T22:37:07.331Z,15.17
2018-05-29T22:39:42.420Z,16.53
2018-05-29T22:42:13.286Z,11.10
2018-05-29T22:44:43.207Z,14.37
2018-05-29T22:47:17.790Z,13.60
2018-05-29T22:49:49.348Z,15.87
2018-05-29T22:52:21.727Z,30.00
2018-05-29T22:54:56.057Z,41.27
2018-05-29T22:57:26.122Z,16.77
2018-05-29T23:00:09.241Z,14.17
2018-05-29T23:02:40.384Z,16.70
2018-05-29T23:08:01.551Z,17.83
2018-05-29T23:10:32.076Z,15.60
2018-05-29T23:13:01.761Z,16.33
2018-05-29T23:15:46.807Z,15.90
2018-05-29T23:18:17.511Z,14.60
2018-05-29T23:20:53.780Z,12.20
2018-05-29T23:23:23.916Z,10.83
2018-05-29T23:25:56.190Z,11.90
2018-05-29T23:28:30.338Z,12.80
2018-05-29T23:31:02.476Z,12.90
2018-05-29T23:33:35.182Z,15.93
2018-05-29T23:36:06.092Z,16.77
2018-05-29T23:38:39.612Z,14.50
2018-05-29T23:41:10.582Z,13.43
2018-05-29T23:43:41.076Z,13.70
2018-05-29T23:46:11.351Z,23.10
2018-05-29T23:48:42.305Z,24.03
2018-05-29T23:51:13.463Z,22.83
2018-05-29T23:53:44.818Z,17.97
2018-05-29T23:56:15.223Z,20.70
2018-05-29T23:58:46.052Z,13.63
